sensor_id;sensor_type;location;lat;lon;timestamp;P1;durP1;ratioP1;P2;durP2;ratioP2
78995;SDS011;68401;47.192;-1.552;2023-04-24T00:00:30;9.68;;;5.05;;
78995;SDS011;68401;47.192;-1.552;2023-04-24T00:02:56;8.13;;;4.90;;
78995;SDS011;68401;47.192;-1.552;2023-04-24T00:05:23;6.82;;;3.90;;
78995;SDS011;68401;47.192;-1.552;2023-04-24T00:07:48;7.38;;;4.43;;
78995;SDS011;68401;47.192;-1.552;2023-04-24T00:12:42;7.73;;;4.33;;
78995;SDS011;68401;47.192;-1.552;2023-04-24T00:15:08;10.13;;;5.10;;
78995;SDS011;68401;47.192;-1.552;2023-04-24T00:17:34;7.18;;;4.15;;
78995;SDS011;68401;47.192;-1.552;2023-04-24T00:19:59;7.47;;;4.30;;
78995;SDS011;68401;47.192;-1.552;2023-04-24T00:22:25;7.43;;;4.30;;
78995;SDS011;68401;47.192;-1.552;2023-04-24T00:24:51;6.70;;;4.00;;
78995;SDS011;68401;47.192;-1.552;2023-04-24T00:27:16;8.93;;;4.22;;
78995;SDS011;68401;47.192;-1.552;2023-04-24T00:29:42;6.65;;;4.20;;
78995;SDS011;68401;47.192;-1.552;2023-04-24T00:32:07;8.48;;;4.20;;
78995;SDS011;68401;47.192;-1.552;2023-04-24T00:34:32;10.57;;;5.00;;
78995;SDS011;68401;47.192;-1.552;2023-04-24T00:36:58;9.57;;;4.20;;
78995;SDS011;68401;47.192;-1.552;2023-04-24T00:39:23;8.50;;;4.72;;
78995;SDS011;68401;47.192;-1.552;2023-04-24T00:41:49;8.82;;;3.97;;
78995;SDS011;68401;47.192;-1.552;2023-04-24T00:44:15;7.22;;;4.53;;
78995;SDS011;68401;47.192;-1.552;2023-04-24T00:46:41;10.20;;;5.03;;
78995;SDS011;68401;47.192;-1.552;2023-04-24T00:49:07;10.45;;;4.63;;
78995;SDS011;68401;47.192;-1.552;2023-04-24T00:51:32;7.20;;;4.30;;
78995;SDS011;68401;47.192;-1.552;2023-04-24T00:53:58;7.63;;;4.35;;
78995;SDS011;68401;47.192;-1.552;2023-04-24T00:56:24;10.50;;;5.18;;
78995;SDS011;68401;47.192;-1.552;2023-04-24T00:58:50;11.27;;;4.82;;
78995;SDS011;68401;47.192;-1.552;2023-04-24T01:01:15;9.68;;;4.80;;
78995;SDS011;68401;47.192;-1.552;2023-04-24T01:03:41;12.75;;;5.13;;
78995;SDS011;68401;47.192;-1.552;2023-04-24T01:06:07;9.13;;;4.80;;
78995;SDS011;68401;47.192;-1.552;2023-04-24T01:08:32;9.25;;;5.30;;
78995;SDS011;68401;47.192;-1.552;2023-04-24T01:10:59;10.27;;;4.88;;
78995;SDS011;68401;47.192;-1.552;2023-04-24T01:13:28;7.70;;;4.75;;
78995;SDS011;68401;47.192;-1.552;2023-04-24T01:15:54;7.78;;;5.00;;
78995;SDS011;68401;47.192;-1.552;2023-04-24T01:18:19;9.07;;;5.30;;
78995;SDS011;68401;47.192;-1.552;2023-04-24T01:20:46;9.13;;;5.10;;
78995;SDS011;68401;47.192;-1.552;2023-04-24T01:23:11;8.40;;;5.28;;
78995;SDS011;68401;47.192;-1.552;2023-04-24T01:25:37;12.93;;;6.03;;
78995;SDS011;68401;47.192;-1.552;2023-04-24T01:28:03;7.93;;;4.75;;
78995;SDS011;68401;47.192;-1.552;2023-04-24T01:30:28;7.78;;;5.53;;
78995;SDS011;68401;47.192;-1.552;2023-04-24T01:32:56;10.10;;;6.20;;
78995;SDS011;68401;47.192;-1.552;2023-04-24T01:35:21;7.03;;;5.30;;
78995;SDS011;68401;47.192;-1.552;2023-04-24T01:37:47;11.30;;;5.10;;
78995;SDS011;68401;47.192;-1.552;2023-04-24T01:40:12;6.38;;;5.22;;
78995;SDS011;68401;47.192;-1.552;2023-04-24T01:42:38;12.20;;;5.43;;
78995;SDS011;68401;47.192;-1.552;2023-04-24T01:45:03;10.90;;;5.47;;
78995;SDS011;68401;47.192;-1.552;2023-04-24T01:47:30;9.90;;;5.22;;
78995;SDS011;68401;47.192;-1.552;2023-04-24T01:49:56;12.25;;;5.60;;
78995;SDS011;68401;47.192;-1.552;2023-04-24T01:52:22;14.20;;;6.65;;
78995;SDS011;68401;47.192;-1.552;2023-04-24T01:54:47;12.13;;;5.53;;
78995;SDS011;68401;47.192;-1.552;2023-04-24T01:57:13;9.07;;;5.18;;
78995;SDS011;68401;47.192;-1.552;2023-04-24T01:59:39;11.63;;;6.30;;
78995;SDS011;68401;47.192;-1.552;2023-04-24T02:02:05;5.68;;;4.70;;
78995;SDS011;68401;47.192;-1.552;2023-04-24T02:04:30;8.90;;;5.55;;
78995;SDS011;68401;47.192;-1.552;2023-04-24T02:06:56;13.65;;;5.53;;
78995;SDS011;68401;47.192;-1.552;2023-04-24T02:09:21;12.65;;;5.63;;
78995;SDS011;68401;47.192;-1.552;2023-04-24T02:11:47;10.55;;;5.13;;
78995;SDS011;68401;47.192;-1.552;2023-04-24T02:14:12;8.45;;;5.43;;
78995;SDS011;68401;47.192;-1.552;2023-04-24T02:16:37;7.55;;;5.05;;
78995;SDS011;68401;47.192;-1.552;2023-04-24T02:19:03;10.45;;;5.05;;
78995;SDS011;68401;47.192;-1.552;2023-04-24T02:21:28;8.05;;;5.80;;
78995;SDS011;68401;47.192;-1.552;2023-04-24T02:23:55;12.15;;;5.10;;
78995;SDS011;68401;47.192;-1.552;2023-04-24T02:26:21;13.60;;;5.40;;
78995;SDS011;68401;47.192;-1.552;2023-04-24T02:28:46;13.55;;;5.90;;
78995;SDS011;68401;47.192;-1.552;2023-04-24T02:31:12;11.35;;;5.68;;
78995;SDS011;68401;47.192;-1.552;2023-04-24T02:33:37;9.02;;;5.40;;
78995;SDS011;68401;47.192;-1.552;2023-04-24T02:36:02;8.02;;;4.88;;
78995;SDS011;68401;47.192;-1.552;2023-04-24T02:38:28;10.93;;;5.15;;
78995;SDS011;68401;47.192;-1.552;2023-04-24T02:40:54;15.57;;;7.20;;
78995;SDS011;68401;47.192;-1.552;2023-04-24T02:43:19;11.88;;;5.97;;
78995;SDS011;68401;47.192;-1.552;2023-04-24T02:45:45;8.82;;;5.70;;
78995;SDS011;68401;47.192;-1.552;2023-04-24T02:48:10;15.70;;;6.68;;
78995;SDS011;68401;47.192;-1.552;2023-04-24T02:50:36;10.00;;;6.68;;
78995;SDS011;68401;47.192;-1.552;2023-04-24T02:53:01;11.32;;;5.75;;
78995;SDS011;68401;47.192;-1.552;2023-04-24T02:55:27;13.65;;;5.32;;
78995;SDS011;68401;47.192;-1.552;2023-04-24T02:57:53;9.70;;;5.55;;
78995;SDS011;68401;47.192;-1.552;2023-04-24T03:00:18;8.02;;;4.70;;
78995;SDS011;68401;47.192;-1.552;2023-04-24T03:02:44;8.68;;;5.13;;
78995;SDS011;68401;47.192;-1.552;2023-04-24T03:05:09;12.07;;;5.18;;
78995;SDS011;68401;47.192;-1.552;2023-04-24T03:07:36;12.98;;;5.32;;
78995;SDS011;68401;47.192;-1.552;2023-04-24T03:10:02;12.80;;;4.90;;
78995;SDS011;68401;47.192;-1.552;2023-04-24T03:12:28;10.77;;;4.90;;
78995;SDS011;68401;47.192;-1.552;2023-04-24T03:14:53;12.05;;;5.53;;
78995;SDS011;68401;47.192;-1.552;2023-04-24T03:17:19;10.50;;;3.72;;
78995;SDS011;68401;47.192;-1.552;2023-04-24T03:19:44;9.50;;;4.18;;
78995;SDS011;68401;47.192;-1.552;2023-04-24T03:22:09;7.18;;;4.50;;
78995;SDS011;68401;47.192;-1.552;2023-04-24T03:24:36;8.60;;;4.20;;
78995;SDS011;68401;47.192;-1.552;2023-04-24T03:27:01;7.60;;;3.97;;
78995;SDS011;68401;47.192;-1.552;2023-04-24T03:29:27;10.75;;;4.28;;
78995;SDS011;68401;47.192;-1.552;2023-04-24T03:31:52;10.77;;;4.82;;
78995;SDS011;68401;47.192;-1.552;2023-04-24T03:34:17;13.57;;;5.00;;
78995;SDS011;68401;47.192;-1.552;2023-04-24T03:36:43;10.27;;;4.50;;
78995;SDS011;68401;47.192;-1.552;2023-04-24T03:39:08;8.65;;;3.85;;
78995;SDS011;68401;47.192;-1.552;2023-04-24T03:41:34;8.68;;;4.50;;
78995;SDS011;68401;47.192;-1.552;2023-04-24T03:43:59;8.05;;;4.25;;
78995;SDS011;68401;47.192;-1.552;2023-04-24T03:46:25;10.25;;;3.90;;
78995;SDS011;68401;47.192;-1.552;2023-04-24T03:48:50;8.98;;;4.30;;
78995;SDS011;68401;47.192;-1.552;2023-04-24T03:51:16;11.80;;;4.75;;
78995;SDS011;68401;47.192;-1.552;2023-04-24T03:53:41;9.38;;;3.83;;
78995;SDS011;68401;47.192;-1.552;2023-04-24T03:56:07;8.70;;;3.92;;
78995;SDS011;68401;47.192;-1.552;2023-04-24T03:58:32;8.50;;;4.05;;
78995;SDS011;68401;47.192;-1.552;2023-04-24T04:00:59;8.50;;;3.72;;
78995;SDS011;68401;47.192;-1.552;2023-04-24T04:03:25;10.18;;;4.68;;
78995;SDS011;68401;47.192;-1.552;2023-04-24T04:05:50;9.02;;;4.45;;
78995;SDS011;68401;47.192;-1.552;2023-04-24T04:08:16;7.20;;;3.50;;
78995;SDS011;68401;47.192;-1.552;2023-04-24T04:10:42;8.07;;;3.22;;
78995;SDS011;68401;47.192;-1.552;2023-04-24T04:13:07;11.30;;;4.45;;
78995;SDS011;68401;47.192;-1.552;2023-04-24T04:15:32;12.57;;;4.88;;
78995;SDS011;68401;47.192;-1.552;2023-04-24T04:17:58;9.55;;;4.35;;
78995;SDS011;68401;47.192;-1.552;2023-04-24T04:20:23;10.05;;;3.42;;
78995;SDS011;68401;47.192;-1.552;2023-04-24T04:22:49;8.05;;;3.95;;
78995;SDS011;68401;47.192;-1.552;2023-04-24T04:25:15;11.40;;;3.85;;
78995;SDS011;68401;47.192;-1.552;2023-04-24T04:27:40;8.52;;;3.90;;
78995;SDS011;68401;47.192;-1.552;2023-04-24T04:30:07;10.48;;;4.47;;
78995;SDS011;68401;47.192;-1.552;2023-04-24T04:32:36;7.20;;;3.90;;
78995;SDS011;68401;47.192;-1.552;2023-04-24T04:37:34;12.82;;;7.57;;
78995;SDS011;68401;47.192;-1.552;2023-04-24T04:40:00;20.98;;;15.40;;
78995;SDS011;68401;47.192;-1.552;2023-04-24T04:42:26;14.88;;;10.90;;
78995;SDS011;68401;47.192;-1.552;2023-04-24T04:44:52;10.27;;;9.20;;
78995;SDS011;68401;47.192;-1.552;2023-04-24T04:47:18;12.93;;;11.55;;
78995;SDS011;68401;47.192;-1.552;2023-04-24T04:49:46;25.02;;;22.88;;
78995;SDS011;68401;47.192;-1.552;2023-04-24T04:52:13;19.13;;;16.73;;
78995;SDS011;68401;47.192;-1.552;2023-04-24T04:54:38;13.57;;;9.02;;
78995;SDS011;68401;47.192;-1.552;2023-04-24T04:57:03;11.43;;;4.20;;
78995;SDS011;68401;47.192;-1.552;2023-04-24T04:59:29;9.82;;;4.28;;
78995;SDS011;68401;47.192;-1.552;2023-04-24T05:01:54;8.07;;;5.03;;
78995;SDS011;68401;47.192;-1.552;2023-04-24T05:04:20;15.20;;;11.68;;
78995;SDS011;68401;47.192;-1.552;2023-04-24T05:06:45;15.73;;;12.20;;
78995;SDS011;68401;47.192;-1.552;2023-04-24T05:09:12;10.65;;;8.80;;
78995;SDS011;68401;47.192;-1.552;2023-04-24T05:11:37;11.38;;;6.25;;
78995;SDS011;68401;47.192;-1.552;2023-04-24T05:14:03;8.75;;;6.15;;
78995;SDS011;68401;47.192;-1.552;2023-04-24T05:16:28;10.93;;;9.88;;
78995;SDS011;68401;47.192;-1.552;2023-04-24T05:18:54;16.02;;;5.25;;
78995;SDS011;68401;47.192;-1.552;2023-04-24T05:21:19;13.85;;;7.55;;
78995;SDS011;68401;47.192;-1.552;2023-04-24T05:23:45;9.52;;;6.97;;
78995;SDS011;68401;47.192;-1.552;2023-04-24T05:26:10;14.50;;;6.30;;
78995;SDS011;68401;47.192;-1.552;2023-04-24T05:28:36;9.13;;;7.10;;
78995;SDS011;68401;47.192;-1.552;2023-04-24T05:31:01;13.90;;;6.38;;
78995;SDS011;68401;47.192;-1.552;2023-04-24T05:33:27;11.93;;;10.63;;
78995;SDS011;68401;47.192;-1.552;2023-04-24T05:35:53;12.98;;;10.32;;
78995;SDS011;68401;47.192;-1.552;2023-04-24T05:38:18;12.80;;;8.40;;
78995;SDS011;68401;47.192;-1.552;2023-04-24T05:40:44;10.98;;;6.75;;
78995;SDS011;68401;47.192;-1.552;2023-04-24T05:43:10;14.52;;;6.10;;
78995;SDS011;68401;47.192;-1.552;2023-04-24T05:45:36;8.90;;;4.05;;
78995;SDS011;68401;47.192;-1.552;2023-04-24T05:48:02;7.68;;;3.90;;
78995;SDS011;68401;47.192;-1.552;2023-04-24T05:50:28;9.73;;;4.35;;
78995;SDS011;68401;47.192;-1.552;2023-04-24T05:52:53;7.38;;;3.67;;
78995;SDS011;68401;47.192;-1.552;2023-04-24T05:55:19;10.35;;;4.53;;
78995;SDS011;68401;47.192;-1.552;2023-04-24T05:57:45;6.82;;;3.53;;
78995;SDS011;68401;47.192;-1.552;2023-04-24T06:00:11;15.70;;;4.28;;
78995;SDS011;68401;47.192;-1.552;2023-04-24T06:02:37;8.30;;;3.75;;
78995;SDS011;68401;47.192;-1.552;2023-04-24T06:05:03;10.30;;;4.75;;
78995;SDS011;68401;47.192;-1.552;2023-04-24T06:07:29;11.07;;;4.55;;
78995;SDS011;68401;47.192;-1.552;2023-04-24T06:09:55;9.90;;;4.35;;
78995;SDS011;68401;47.192;-1.552;2023-04-24T06:12:21;9.93;;;3.67;;
78995;SDS011;68401;47.192;-1.552;2023-04-24T06:14:47;8.75;;;3.97;;
78995;SDS011;68401;47.192;-1.552;2023-04-24T06:17:12;10.88;;;3.97;;
78995;SDS011;68401;47.192;-1.552;2023-04-24T06:19:38;6.75;;;3.80;;
78995;SDS011;68401;47.192;-1.552;2023-04-24T06:22:03;8.30;;;3.92;;
78995;SDS011;68401;47.192;-1.552;2023-04-24T06:24:29;16.20;;;5.13;;
78995;SDS011;68401;47.192;-1.552;2023-04-24T06:26:54;6.57;;;3.40;;
78995;SDS011;68401;47.192;-1.552;2023-04-24T06:29:23;11.27;;;3.95;;
78995;SDS011;68401;47.192;-1.552;2023-04-24T06:31:49;6.07;;;3.47;;
78995;SDS011;68401;47.192;-1.552;2023-04-24T06:34:14;7.68;;;3.47;;
78995;SDS011;68401;47.192;-1.552;2023-04-24T06:36:40;7.95;;;3.80;;
78995;SDS011;68401;47.192;-1.552;2023-04-24T06:39:05;10.05;;;4.05;;
78995;SDS011;68401;47.192;-1.552;2023-04-24T06:41:31;11.18;;;4.18;;
78995;SDS011;68401;47.192;-1.552;2023-04-24T06:43:56;7.93;;;3.45;;
78995;SDS011;68401;47.192;-1.552;2023-04-24T06:46:21;8.20;;;4.00;;
78995;SDS011;68401;47.192;-1.552;2023-04-24T06:48:49;6.80;;;4.10;;
78995;SDS011;68401;47.192;-1.552;2023-04-24T06:51:15;13.32;;;5.70;;
78995;SDS011;68401;47.192;-1.552;2023-04-24T06:53:42;13.48;;;4.47;;
78995;SDS011;68401;47.192;-1.552;2023-04-24T06:56:07;11.57;;;5.70;;
78995;SDS011;68401;47.192;-1.552;2023-04-24T06:58:33;9.75;;;5.15;;
78995;SDS011;68401;47.192;-1.552;2023-04-24T07:00:58;9.93;;;4.53;;
78995;SDS011;68401;47.192;-1.552;2023-04-24T07:03:24;12.43;;;5.25;;
78995;SDS011;68401;47.192;-1.552;2023-04-24T07:05:49;12.82;;;5.38;;
78995;SDS011;68401;47.192;-1.552;2023-04-24T07:08:16;15.00;;;5.97;;
78995;SDS011;68401;47.192;-1.552;2023-04-24T07:10:42;13.73;;;4.65;;
78995;SDS011;68401;47.192;-1.552;2023-04-24T07:13:08;14.35;;;4.95;;
78995;SDS011;68401;47.192;-1.552;2023-04-24T07:15:34;11.75;;;5.03;;
78995;SDS011;68401;47.192;-1.552;2023-04-24T07:17:59;13.77;;;5.97;;
78995;SDS011;68401;47.192;-1.552;2023-04-24T07:20:25;11.10;;;4.70;;
78995;SDS011;68401;47.192;-1.552;2023-04-24T07:22:51;11.80;;;4.88;;
78995;SDS011;68401;47.192;-1.552;2023-04-24T07:25:19;15.25;;;4.85;;
78995;SDS011;68401;47.192;-1.552;2023-04-24T07:27:44;11.48;;;4.75;;
78995;SDS011;68401;47.192;-1.552;2023-04-24T07:30:10;10.05;;;4.20;;
78995;SDS011;68401;47.192;-1.552;2023-04-24T07:32:36;8.70;;;4.32;;
78995;SDS011;68401;47.192;-1.552;2023-04-24T07:35:01;10.35;;;4.35;;
78995;SDS011;68401;47.192;-1.552;2023-04-24T07:37:27;7.85;;;3.28;;
78995;SDS011;68401;47.192;-1.552;2023-04-24T07:39:53;5.28;;;3.42;;
78995;SDS011;68401;47.192;-1.552;2023-04-24T07:42:18;8.20;;;3.22;;
78995;SDS011;68401;47.192;-1.552;2023-04-24T07:44:44;10.30;;;3.75;;
78995;SDS011;68401;47.192;-1.552;2023-04-24T07:47:10;12.57;;;5.18;;
78995;SDS011;68401;47.192;-1.552;2023-04-24T07:49:36;12.45;;;4.45;;
78995;SDS011;68401;47.192;-1.552;2023-04-24T07:52:01;6.68;;;3.35;;
78995;SDS011;68401;47.192;-1.552;2023-04-24T07:54:27;9.43;;;4.07;;
78995;SDS011;68401;47.192;-1.552;2023-04-24T07:56:53;6.57;;;3.13;;
78995;SDS011;68401;47.192;-1.552;2023-04-24T07:59:19;8.15;;;3.55;;
78995;SDS011;68401;47.192;-1.552;2023-04-24T08:01:44;8.57;;;4.30;;
78995;SDS011;68401;47.192;-1.552;2023-04-24T08:04:10;9.20;;;4.70;;
78995;SDS011;68401;47.192;-1.552;2023-04-24T08:06:35;13.35;;;4.40;;
78995;SDS011;68401;47.192;-1.552;2023-04-24T08:09:01;12.18;;;3.85;;
78995;SDS011;68401;47.192;-1.552;2023-04-24T08:11:27;12.70;;;4.00;;
78995;SDS011;68401;47.192;-1.552;2023-04-24T08:13:52;9.43;;;3.45;;
78995;SDS011;68401;47.192;-1.552;2023-04-24T08:16:19;12.55;;;3.92;;
78995;SDS011;68401;47.192;-1.552;2023-04-24T08:18:44;11.38;;;3.25;;
78995;SDS011;68401;47.192;-1.552;2023-04-24T08:21:10;7.97;;;3.47;;
78995;SDS011;68401;47.192;-1.552;2023-04-24T08:23:37;11.52;;;4.60;;
78995;SDS011;68401;47.192;-1.552;2023-04-24T08:26:03;8.98;;;3.55;;
78995;SDS011;68401;47.192;-1.552;2023-04-24T08:28:28;15.82;;;5.03;;
78995;SDS011;68401;47.192;-1.552;2023-04-24T08:30:54;6.82;;;4.15;;
78995;SDS011;68401;47.192;-1.552;2023-04-24T08:33:20;9.48;;;3.58;;
78995;SDS011;68401;47.192;-1.552;2023-04-24T08:35:46;8.05;;;3.10;;
78995;SDS011;68401;47.192;-1.552;2023-04-24T08:38:12;9.02;;;3.58;;
78995;SDS011;68401;47.192;-1.552;2023-04-24T08:40:37;8.65;;;3.15;;
78995;SDS011;68401;47.192;-1.552;2023-04-24T08:43:04;11.27;;;3.70;;
78995;SDS011;68401;47.192;-1.552;2023-04-24T08:45:29;8.00;;;3.67;;
78995;SDS011;68401;47.192;-1.552;2023-04-24T08:47:55;8.25;;;3.22;;
78995;SDS011;68401;47.192;-1.552;2023-04-24T08:50:22;9.02;;;3.30;;
78995;SDS011;68401;47.192;-1.552;2023-04-24T08:52:49;10.55;;;3.40;;
78995;SDS011;68401;47.192;-1.552;2023-04-24T08:55:16;8.68;;;3.10;;
78995;SDS011;68401;47.192;-1.552;2023-04-24T08:57:43;12.13;;;3.72;;
78995;SDS011;68401;47.192;-1.552;2023-04-24T09:00:10;7.82;;;3.03;;
78995;SDS011;68401;47.192;-1.552;2023-04-24T09:02:38;6.03;;;3.03;;
78995;SDS011;68401;47.192;-1.552;2023-04-24T09:07:31;12.40;;;5.70;;
78995;SDS011;68401;47.192;-1.552;2023-04-24T09:09:57;19.75;;;9.85;;
78995;SDS011;68401;47.192;-1.552;2023-04-24T09:12:23;16.58;;;8.10;;
78995;SDS011;68401;47.192;-1.552;2023-04-24T09:14:48;14.10;;;5.75;;
78995;SDS011;68401;47.192;-1.552;2023-04-24T09:17:14;8.25;;;4.63;;
78995;SDS011;68401;47.192;-1.552;2023-04-24T09:19:40;14.45;;;6.70;;
78995;SDS011;68401;47.192;-1.552;2023-04-24T09:22:06;9.45;;;4.97;;
78995;SDS011;68401;47.192;-1.552;2023-04-24T09:24:33;11.38;;;4.50;;
78995;SDS011;68401;47.192;-1.552;2023-04-24T09:26:59;10.00;;;2.92;;
78995;SDS011;68401;47.192;-1.552;2023-04-24T09:29:28;6.60;;;3.35;;
78995;SDS011;68401;47.192;-1.552;2023-04-24T09:31:54;6.65;;;2.65;;
78995;SDS011;68401;47.192;-1.552;2023-04-24T09:34:23;5.13;;;2.85;;
78995;SDS011;68401;47.192;-1.552;2023-04-24T09:36:52;8.50;;;3.00;;
78995;SDS011;68401;47.192;-1.552;2023-04-24T09:39:18;6.47;;;3.45;;
78995;SDS011;68401;47.192;-1.552;2023-04-24T09:41:50;7.00;;;2.80;;
78995;SDS011;68401;47.192;-1.552;2023-04-24T09:44:21;6.25;;;2.67;;
78995;SDS011;68401;47.192;-1.552;2023-04-24T09:46:54;5.60;;;2.40;;
78995;SDS011;68401;47.192;-1.552;2023-04-24T09:49:24;5.85;;;2.45;;
78995;SDS011;68401;47.192;-1.552;2023-04-24T09:52:08;5.78;;;1.92;;
78995;SDS011;68401;47.192;-1.552;2023-04-24T09:54:35;11.77;;;2.88;;
78995;SDS011;68401;47.192;-1.552;2023-04-24T09:57:01;7.82;;;2.38;;
78995;SDS011;68401;47.192;-1.552;2023-04-24T09:59:27;10.50;;;2.78;;
78995;SDS011;68401;47.192;-1.552;2023-04-24T10:01:52;10.18;;;2.45;;
78995;SDS011;68401;47.192;-1.552;2023-04-24T10:04:22;7.55;;;2.60;;
78995;SDS011;68401;47.192;-1.552;2023-04-24T10:06:49;6.38;;;1.70;;
78995;SDS011;68401;47.192;-1.552;2023-04-24T10:09:19;4.78;;;1.75;;
78995;SDS011;68401;47.192;-1.552;2023-04-24T10:11:47;7.97;;;2.72;;
78995;SDS011;68401;47.192;-1.552;2023-04-24T10:14:14;9.45;;;3.03;;
78995;SDS011;68401;47.192;-1.552;2023-04-24T10:16:41;8.02;;;2.35;;
78995;SDS011;68401;47.192;-1.552;2023-04-24T10:19:07;8.68;;;2.60;;
78995;SDS011;68401;47.192;-1.552;2023-04-24T10:21:34;9.18;;;2.88;;
78995;SDS011;68401;47.192;-1.552;2023-04-24T10:24:00;8.85;;;3.17;;
78995;SDS011;68401;47.192;-1.552;2023-04-24T10:26:28;8.90;;;2.28;;
78995;SDS011;68401;47.192;-1.552;2023-04-24T10:28:54;7.85;;;2.22;;
78995;SDS011;68401;47.192;-1.552;2023-04-24T10:31:22;8.15;;;2.40;;
78995;SDS011;68401;47.192;-1.552;2023-04-24T10:33:48;6.25;;;2.35;;
78995;SDS011;68401;47.192;-1.552;2023-04-24T10:36:15;10.15;;;2.83;;
78995;SDS011;68401;47.192;-1.552;2023-04-24T10:38:41;12.05;;;2.60;;
78995;SDS011;68401;47.192;-1.552;2023-04-24T10:41:09;8.52;;;3.45;;
78995;SDS011;68401;47.192;-1.552;2023-04-24T10:43:41;5.20;;;2.58;;
78995;SDS011;68401;47.192;-1.552;2023-04-24T10:46:07;6.35;;;2.35;;
78995;SDS011;68401;47.192;-1.552;2023-04-24T10:48:35;5.88;;;2.70;;
78995;SDS011;68401;47.192;-1.552;2023-04-24T10:51:00;7.68;;;3.30;;
78995;SDS011;68401;47.192;-1.552;2023-04-24T10:53:30;7.75;;;2.78;;
78995;SDS011;68401;47.192;-1.552;2023-04-24T10:56:02;8.68;;;2.75;;
78995;SDS011;68401;47.192;-1.552;2023-04-24T10:58:39;8.07;;;2.65;;
78995;SDS011;68401;47.192;-1.552;2023-04-24T11:01:08;7.93;;;2.20;;
78995;SDS011;68401;47.192;-1.552;2023-04-24T11:03:34;6.43;;;2.22;;
78995;SDS011;68401;47.192;-1.552;2023-04-24T11:06:07;8.77;;;2.20;;
78995;SDS011;68401;47.192;-1.552;2023-04-24T11:08:37;6.50;;;1.98;;
78995;SDS011;68401;47.192;-1.552;2023-04-24T11:11:08;8.95;;;3.05;;
78995;SDS011;68401;47.192;-1.552;2023-04-24T11:21:42;7.57;;;2.58;;
78995;SDS011;68401;47.192;-1.552;2023-04-24T11:27:12;7.75;;;2.88;;
78995;SDS011;68401;47.192;-1.552;2023-04-24T11:32:35;9.13;;;2.78;;
78995;SDS011;68401;47.192;-1.552;2023-04-24T11:35:15;8.18;;;2.47;;
78995;SDS011;68401;47.192;-1.552;2023-04-24T11:37:49;7.20;;;2.70;;
78995;SDS011;68401;47.192;-1.552;2023-04-24T11:40:16;4.93;;;2.20;;
78995;SDS011;68401;47.192;-1.552;2023-04-24T11:42:46;5.60;;;2.35;;
78995;SDS011;68401;47.192;-1.552;2023-04-24T11:45:13;5.72;;;3.13;;
78995;SDS011;68401;47.192;-1.552;2023-04-24T11:47:40;7.75;;;2.80;;
78995;SDS011;68401;47.192;-1.552;2023-04-24T11:50:07;5.25;;;2.10;;
78995;SDS011;68401;47.192;-1.552;2023-04-24T11:52:38;9.70;;;3.15;;
78995;SDS011;68401;47.192;-1.552;2023-04-24T11:55:06;7.72;;;2.80;;
78995;SDS011;68401;47.192;-1.552;2023-04-24T11:57:44;6.50;;;2.50;;
78995;SDS011;68401;47.192;-1.552;2023-04-24T12:00:31;8.48;;;2.85;;
78995;SDS011;68401;47.192;-1.552;2023-04-24T12:03:29;6.05;;;2.38;;
78995;SDS011;68401;47.192;-1.552;2023-04-24T12:05:48;5.80;;;2.50;;
78995;SDS011;68401;47.192;-1.552;2023-04-24T12:08:26;7.65;;;2.78;;
78995;SDS011;68401;47.192;-1.552;2023-04-24T12:10:53;9.90;;;2.67;;
78995;SDS011;68401;47.192;-1.552;2023-04-24T12:13:18;8.30;;;2.50;;
78995;SDS011;68401;47.192;-1.552;2023-04-24T12:15:44;9.80;;;3.08;;
78995;SDS011;68401;47.192;-1.552;2023-04-24T12:18:11;6.75;;;2.38;;
78995;SDS011;68401;47.192;-1.552;2023-04-24T12:23:03;6.87;;;2.83;;
78995;SDS011;68401;47.192;-1.552;2023-04-24T12:25:29;5.78;;;2.83;;
78995;SDS011;68401;47.192;-1.552;2023-04-24T12:30:29;5.38;;;2.25;;
78995;SDS011;68401;47.192;-1.552;2023-04-24T12:32:59;5.18;;;2.72;;
78995;SDS011;68401;47.192;-1.552;2023-04-24T12:35:29;7.40;;;3.25;;
78995;SDS011;68401;47.192;-1.552;2023-04-24T12:38:04;7.47;;;2.83;;
78995;SDS011;68401;47.192;-1.552;2023-04-24T12:42:56;9.10;;;3.53;;
78995;SDS011;68401;47.192;-1.552;2023-04-24T12:45:22;5.72;;;3.03;;
78995;SDS011;68401;47.192;-1.552;2023-04-24T12:47:49;18.00;;;8.05;;
78995;SDS011;68401;47.192;-1.552;2023-04-24T12:50:15;7.45;;;4.63;;
78995;SDS011;68401;47.192;-1.552;2023-04-24T12:52:41;8.27;;;2.95;;
78995;SDS011;68401;47.192;-1.552;2023-04-24T12:55:07;8.55;;;3.47;;
78995;SDS011;68401;47.192;-1.552;2023-04-24T12:57:34;6.13;;;2.92;;
78995;SDS011;68401;47.192;-1.552;2023-04-24T13:00:00;7.57;;;3.92;;
78995;SDS011;68401;47.192;-1.552;2023-04-24T13:02:27;11.50;;;3.38;;
78995;SDS011;68401;47.192;-1.552;2023-04-24T13:04:56;9.23;;;2.65;;
78995;SDS011;68401;47.192;-1.552;2023-04-24T13:07:23;8.95;;;3.28;;
78995;SDS011;68401;47.192;-1.552;2023-04-24T13:09:48;7.05;;;2.95;;
78995;SDS011;68401;47.192;-1.552;2023-04-24T13:12:14;6.05;;;3.08;;
78995;SDS011;68401;47.192;-1.552;2023-04-24T13:14:40;5.50;;;3.30;;
78995;SDS011;68401;47.192;-1.552;2023-04-24T13:17:05;7.57;;;2.90;;
78995;SDS011;68401;47.192;-1.552;2023-04-24T13:19:39;6.05;;;2.25;;
78995;SDS011;68401;47.192;-1.552;2023-04-24T13:22:06;3.30;;;2.15;;
78995;SDS011;68401;47.192;-1.552;2023-04-24T13:24:32;11.52;;;3.50;;
78995;SDS011;68401;47.192;-1.552;2023-04-24T13:26:57;5.03;;;2.60;;
78995;SDS011;68401;47.192;-1.552;2023-04-24T13:29:23;7.43;;;2.42;;
78995;SDS011;68401;47.192;-1.552;2023-04-24T13:31:52;6.15;;;2.83;;
78995;SDS011;68401;47.192;-1.552;2023-04-24T13:34:24;9.05;;;2.50;;
78995;SDS011;68401;47.192;-1.552;2023-04-24T13:36:51;5.90;;;2.75;;
78995;SDS011;68401;47.192;-1.552;2023-04-24T13:39:17;8.23;;;2.40;;
78995;SDS011;68401;47.192;-1.552;2023-04-24T13:41:43;6.15;;;2.40;;
78995;SDS011;68401;47.192;-1.552;2023-04-24T13:44:08;7.65;;;2.35;;
78995;SDS011;68401;47.192;-1.552;2023-04-24T13:46:34;9.05;;;3.13;;
78995;SDS011;68401;47.192;-1.552;2023-04-24T13:49:02;7.88;;;2.45;;
78995;SDS011;68401;47.192;-1.552;2023-04-24T13:51:28;5.32;;;2.47;;
78995;SDS011;68401;47.192;-1.552;2023-04-24T13:53:54;3.97;;;2.28;;
78995;SDS011;68401;47.192;-1.552;2023-04-24T13:56:20;7.88;;;2.90;;
78995;SDS011;68401;47.192;-1.552;2023-04-24T13:58:45;5.63;;;2.00;;
78995;SDS011;68401;47.192;-1.552;2023-04-24T14:01:11;7.60;;;2.30;;
78995;SDS011;68401;47.192;-1.552;2023-04-24T14:03:37;6.10;;;2.30;;
78995;SDS011;68401;47.192;-1.552;2023-04-24T14:06:03;5.00;;;2.15;;
78995;SDS011;68401;47.192;-1.552;2023-04-24T14:08:28;5.78;;;2.30;;
78995;SDS011;68401;47.192;-1.552;2023-04-24T14:10:54;7.53;;;2.70;;
78995;SDS011;68401;47.192;-1.552;2023-04-24T14:13:19;5.55;;;2.10;;
78995;SDS011;68401;47.192;-1.552;2023-04-24T14:15:45;6.10;;;2.28;;
78995;SDS011;68401;47.192;-1.552;2023-04-24T14:18:10;6.95;;;2.60;;
78995;SDS011;68401;47.192;-1.552;2023-04-24T14:20:36;6.85;;;2.25;;
78995;SDS011;68401;47.192;-1.552;2023-04-24T14:23:01;9.90;;;2.42;;
78995;SDS011;68401;47.192;-1.552;2023-04-24T14:25:26;7.45;;;2.13;;
78995;SDS011;68401;47.192;-1.552;2023-04-24T14:27:52;4.53;;;2.13;;
78995;SDS011;68401;47.192;-1.552;2023-04-24T14:30:18;7.40;;;2.05;;
78995;SDS011;68401;47.192;-1.552;2023-04-24T14:32:43;5.95;;;2.20;;
78995;SDS011;68401;47.192;-1.552;2023-04-24T14:35:09;7.22;;;3.08;;
78995;SDS011;68401;47.192;-1.552;2023-04-24T14:37:34;6.32;;;2.20;;
78995;SDS011;68401;47.192;-1.552;2023-04-24T14:40:01;5.45;;;2.17;;
78995;SDS011;68401;47.192;-1.552;2023-04-24T14:42:26;5.90;;;1.95;;
78995;SDS011;68401;47.192;-1.552;2023-04-24T14:44:53;4.65;;;1.92;;
78995;SDS011;68401;47.192;-1.552;2023-04-24T14:47:19;4.43;;;2.15;;
78995;SDS011;68401;47.192;-1.552;2023-04-24T14:49:46;6.65;;;2.20;;
78995;SDS011;68401;47.192;-1.552;2023-04-24T14:52:12;6.22;;;2.20;;